sensor_id;sensor_type;location;lat;lon;timestamp;pressure;altitude;pressure_sealevel;temperature;humidity
15884;BME280;8040;50.254;10.960;2023-06-04T00:00:31;98463.84;;;15.62;35.03
15884;BME280;8040;50.254;10.960;2023-06-04T00:02:57;98464.38;;;15.55;35.44
15884;BME280;8040;50.254;10.960;2023-06-04T00:05:22;98464.53;;;15.50;35.56
15884;BME280;8040;50.254;10.960;2023-06-04T00:07:51;98461.19;;;15.45;35.81
15884;BME280;8040;50.254;10.960;2023-06-04T00:10:21;98462.47;;;15.39;35.93
15884;BME280;8040;50.254;10.960;2023-06-04T00:12:47;98459.91;;;15.34;35.69
15884;BME280;8040;50.254;10.960;2023-06-04T00:15:13;98453.31;;;15.26;35.94
15884;BME280;8040;50.254;10.960;2023-06-04T00:17:40;98460.72;;;15.17;36.44
15884;BME280;8040;50.254;10.960;2023-06-04T00:20:05;98447.22;;;15.12;36.65
15884;BME280;8040;50.254;10.960;2023-06-04T00:22:31;98443.06;;;15.06;36.64
15884;BME280;8040;50.254;10.960;2023-06-04T00:24:56;98440.47;;;15.01;36.48
15884;BME280;8040;50.254;10.960;2023-06-04T00:27:21;98441.94;;;14.99;36.80
15884;BME280;8040;50.254;10.960;2023-06-04T00:29:46;98436.16;;;14.92;36.73
15884;BME280;8040;50.254;10.960;2023-06-04T00:32:15;98434.06;;;14.89;36.83
15884;BME280;8040;50.254;10.960;2023-06-04T00:34:40;98431.66;;;14.87;37.34
15884;BME280;8040;50.254;10.960;2023-06-04T00:37:06;98441.94;;;14.82;37.42
15884;BME280;8040;50.254;10.960;2023-06-04T00:39:31;98434.06;;;14.80;37.24
15884;BME280;8040;50.254;10.960;2023-06-04T00:41:57;98439.34;;;14.77;36.79
15884;BME280;8040;50.254;10.960;2023-06-04T00:44:22;98435.03;;;14.76;36.64
15884;BME280;8040;50.254;10.960;2023-06-04T00:46:48;98445.47;;;14.74;37.38
15884;BME280;8040;50.254;10.960;2023-06-04T00:49:14;98438.41;;;14.73;37.34
15884;BME280;8040;50.254;10.960;2023-06-04T00:51:40;98440.16;;;14.69;37.46
15884;BME280;8040;50.254;10.960;2023-06-04T00:54:11;98435.38;;;14.66;37.57
15884;BME280;8040;50.254;10.960;2023-06-04T00:56:38;98434.38;;;14.62;37.86
15884;BME280;8040;50.254;10.960;2023-06-04T00:59:07;98427.34;;;14.61;37.92
15884;BME280;8040;50.254;10.960;2023-06-04T01:01:49;98428.31;;;14.56;37.96
15884;BME280;8040;50.254;10.960;2023-06-04T01:04:18;98434.38;;;14.53;38.19
15884;BME280;8040;50.254;10.960;2023-06-04T01:06:48;98445.13;;;14.50;38.26
15884;BME280;8040;50.254;10.960;2023-06-04T01:09:14;98443.22;;;14.42;38.49
15884;BME280;8040;50.254;10.960;2023-06-04T01:11:40;98448.69;;;14.42;38.16
15884;BME280;8040;50.254;10.960;2023-06-04T01:14:07;98450.41;;;14.38;38.24
15884;BME280;8040;50.254;10.960;2023-06-04T01:19:32;98445.41;;;14.31;38.03
15884;BME280;8040;50.254;10.960;2023-06-04T01:22:09;98448.16;;;14.31;38.34
15884;BME280;8040;50.254;10.960;2023-06-04T01:24:36;98446.56;;;14.30;38.12
15884;BME280;8040;50.254;10.960;2023-06-04T01:27:03;98443.66;;;14.27;37.97
15884;BME280;8040;50.254;10.960;2023-06-04T01:29:30;98453.28;;;14.24;38.17
15884;BME280;8040;50.254;10.960;2023-06-04T01:31:57;98442.19;;;14.21;38.70
15884;BME280;8040;50.254;10.960;2023-06-04T01:34:26;98448.59;;;14.16;38.62
15884;BME280;8040;50.254;10.960;2023-06-04T01:36:51;98451.94;;;14.13;39.07
15884;BME280;8040;50.254;10.960;2023-06-04T01:39:16;98455.78;;;14.12;38.86
15884;BME280;8040;50.254;10.960;2023-06-04T01:41:42;98452.88;;;14.09;38.38
15884;BME280;8040;50.254;10.960;2023-06-04T01:44:07;98449.69;;;14.07;39.12
15884;BME280;8040;50.254;10.960;2023-06-04T01:46:32;98450.94;;;14.01;39.36
15884;BME280;8040;50.254;10.960;2023-06-04T01:48:58;98449.03;;;14.01;39.38
15884;BME280;8040;50.254;10.960;2023-06-04T01:51:23;98441.78;;;13.97;39.24
15884;BME280;8040;50.254;10.960;2023-06-04T01:53:48;98431.31;;;13.82;38.49
15884;BME280;8040;50.254;10.960;2023-06-04T01:59:35;98442.44;;;13.94;38.89
15884;BME280;8040;50.254;10.960;2023-06-04T02:02:04;98452.53;;;13.93;39.29
15884;BME280;8040;50.254;10.960;2023-06-04T02:04:30;98447.88;;;13.94;39.30
15884;BME280;8040;50.254;10.960;2023-06-04T02:06:55;98453.94;;;13.91;39.27
15884;BME280;8040;50.254;10.960;2023-06-04T02:09:21;98448.31;;;13.87;39.79
15884;BME280;8040;50.254;10.960;2023-06-04T02:11:47;98450.88;;;13.84;40.35
15884;BME280;8040;50.254;10.960;2023-06-04T02:14:12;98447.16;;;13.80;40.33
15884;BME280;8040;50.254;10.960;2023-06-04T02:16:37;98456.81;;;13.77;40.81
15884;BME280;8040;50.254;10.960;2023-06-04T02:19:02;98452.28;;;13.73;41.03
15884;BME280;8040;50.254;10.960;2023-06-04T02:21:34;98446.66;;;13.69;41.28
15884;BME280;8040;50.254;10.960;2023-06-04T02:24:00;98450.81;;;13.67;41.46
15884;BME280;8040;50.254;10.960;2023-06-04T02:26:25;98458.03;;;13.63;41.62
15884;BME280;8040;50.254;10.960;2023-06-04T02:28:51;98458.75;;;13.55;42.16
15884;BME280;8040;50.254;10.960;2023-06-04T02:31:16;98461.66;;;13.50;42.42
15884;BME280;8040;50.254;10.960;2023-06-04T02:33:42;98460.34;;;13.47;42.64
15884;BME280;8040;50.254;10.960;2023-06-04T02:36:09;98463.22;;;13.42;42.84
15884;BME280;8040;50.254;10.960;2023-06-04T02:38:35;98461.59;;;13.41;42.68
15884;BME280;8040;50.254;10.960;2023-06-04T02:41:00;98469.25;;;13.39;42.77
15884;BME280;8040;50.254;10.960;2023-06-04T02:43:27;98467.97;;;13.37;43.09
15884;BME280;8040;50.254;10.960;2023-06-04T02:45:52;98467.31;;;13.31;43.08
15884;BME280;8040;50.254;10.960;2023-06-04T02:48:17;98468.72;;;13.29;43.02
15884;BME280;8040;50.254;10.960;2023-06-04T02:50:43;98473.69;;;13.27;43.34
15884;BME280;8040;50.254;10.960;2023-06-04T02:53:08;98469.97;;;13.23;43.40
15884;BME280;8040;50.254;10.960;2023-06-04T02:55:33;98466.13;;;13.24;43.49
15884;BME280;8040;50.254;10.960;2023-06-04T02:57:59;98475.13;;;13.24;43.39
15884;BME280;8040;50.254;10.960;2023-06-04T03:00:25;98470.78;;;13.23;43.11
15884;BME280;8040;50.254;10.960;2023-06-04T03:02:51;98470.59;;;13.20;42.97
15884;BME280;8040;50.254;10.960;2023-06-04T03:05:22;98472.03;;;13.17;42.90
15884;BME280;8040;50.254;10.960;2023-06-04T03:07:49;98475.34;;;13.14;42.95
15884;BME280;8040;50.254;10.960;2023-06-04T03:10:15;98478.91;;;13.15;43.17
15884;BME280;8040;50.254;10.960;2023-06-04T03:12:40;98480.50;;;13.16;42.77
15884;BME280;8040;50.254;10.960;2023-06-04T03:15:06;98483.72;;;13.18;42.84
15884;BME280;8040;50.254;10.960;2023-06-04T03:17:31;98481.09;;;13.13;42.60
15884;BME280;8040;50.254;10.960;2023-06-04T03:19:57;98481.63;;;13.15;42.68
15884;BME280;8040;50.254;10.960;2023-06-04T03:22:22;98481.00;;;13.18;42.70
15884;BME280;8040;50.254;10.960;2023-06-04T03:24:48;98479.38;;;13.17;42.69
15884;BME280;8040;50.254;10.960;2023-06-04T03:30:36;98477.78;;;13.16;42.81
15884;BME280;8040;50.254;10.960;2023-06-04T03:33:01;98489.78;;;13.15;42.23
15884;BME280;8040;50.254;10.960;2023-06-04T03:35:27;98481.63;;;13.15;42.42
15884;BME280;8040;50.254;10.960;2023-06-04T03:37:53;98485.66;;;13.17;42.95
15884;BME280;8040;50.254;10.960;2023-06-04T03:40:18;98481.00;;;13.18;43.04
15884;BME280;8040;50.254;10.960;2023-06-04T03:42:43;98484.53;;;13.18;43.22
15884;BME280;8040;50.254;10.960;2023-06-04T03:45:09;98486.94;;;13.20;43.20
15884;BME280;8040;50.254;10.960;2023-06-04T03:47:34;98480.38;;;13.21;43.43
15884;BME280;8040;50.254;10.960;2023-06-04T03:49:59;98485.53;;;13.22;43.65
15884;BME280;8040;50.254;10.960;2023-06-04T03:55:09;98486.44;;;13.18;43.79
15884;BME280;8040;50.254;10.960;2023-06-04T03:57:36;98486.63;;;13.21;43.93
15884;BME280;8040;50.254;10.960;2023-06-04T04:00:04;98489.22;;;13.26;43.62
15884;BME280;8040;50.254;10.960;2023-06-04T04:02:31;98486.81;;;13.25;43.57
15884;BME280;8040;50.254;10.960;2023-06-04T04:04:56;98484.41;;;13.23;43.44
15884;BME280;8040;50.254;10.960;2023-06-04T04:07:22;98489.75;;;13.28;43.58
15884;BME280;8040;50.254;10.960;2023-06-04T04:09:47;98486.19;;;13.28;43.70
15884;BME280;8040;50.254;10.960;2023-06-04T04:12:13;98472.56;;;13.28;44.01
15884;BME280;8040;50.254;10.960;2023-06-04T04:18:00;98483.47;;;13.28;44.17
15884;BME280;8040;50.254;10.960;2023-06-04T04:20:26;98483.28;;;13.24;44.39
15884;BME280;8040;50.254;10.960;2023-06-04T04:22:51;98492.25;;;13.25;44.77
15884;BME280;8040;50.254;10.960;2023-06-04T04:25:18;98491.00;;;13.31;44.27
15884;BME280;8040;50.254;10.960;2023-06-04T04:27:43;98493.94;;;13.34;44.19
15884;BME280;8040;50.254;10.960;2023-06-04T04:30:09;98489.16;;;13.40;44.12
15884;BME280;8040;50.254;10.960;2023-06-04T04:32:35;98490.28;;;13.39;44.06
15884;BME280;8040;50.254;10.960;2023-06-04T04:35:03;98494.31;;;13.41;43.36
15884;BME280;8040;50.254;10.960;2023-06-04T04:37:29;98500.28;;;13.52;43.50
15884;BME280;8040;50.254;10.960;2023-06-04T04:39:58;98500.03;;;13.62;43.68
15884;BME280;8040;50.254;10.960;2023-06-04T04:42:23;98490.75;;;14.02;43.41
15884;BME280;8040;50.254;10.960;2023-06-04T04:44:49;98495.72;;;14.47;41.89
15884;BME280;8040;50.254;10.960;2023-06-04T04:47:15;98486.75;;;14.64;41.44
15884;BME280;8040;50.254;10.960;2023-06-04T04:49:41;98494.00;;;14.68;41.68
15884;BME280;8040;50.254;10.960;2023-06-04T04:52:06;98485.59;;;14.65;41.70
15884;BME280;8040;50.254;10.960;2023-06-04T04:54:31;98490.28;;;14.56;41.59
15884;BME280;8040;50.254;10.960;2023-06-04T04:56:56;98488.66;;;14.55;41.60
15884;BME280;8040;50.254;10.960;2023-06-04T04:59:22;98495.88;;;14.51;42.55
15884;BME280;8040;50.254;10.960;2023-06-04T05:01:47;98487.84;;;14.54;42.47
15884;BME280;8040;50.254;10.960;2023-06-04T05:04:12;98500.88;;;14.57;42.49
15884;BME280;8040;50.254;10.960;2023-06-04T05:06:38;98500.88;;;14.57;42.17
15884;BME280;8040;50.254;10.960;2023-06-04T05:09:03;98497.38;;;14.82;41.67
15884;BME280;8040;50.254;10.960;2023-06-04T05:11:29;98496.06;;;15.31;41.16
15884;BME280;8040;50.254;10.960;2023-06-04T05:13:54;98495.78;;;15.87;40.02
15884;BME280;8040;50.254;10.960;2023-06-04T05:16:19;98488.38;;;16.24;38.97
15884;BME280;8040;50.254;10.960;2023-06-04T05:18:45;98499.78;;;16.26;38.98
15884;BME280;8040;50.254;10.960;2023-06-04T05:21:11;98498.41;;;16.49;39.07
15884;BME280;8040;50.254;10.960;2023-06-04T05:23:38;98497.66;;;16.90;37.99
15884;BME280;8040;50.254;10.960;2023-06-04T05:26:04;98500.31;;;16.98;37.90
15884;BME280;8040;50.254;10.960;2023-06-04T05:28:30;98502.25;;;16.98;37.90
15884;BME280;8040;50.254;10.960;2023-06-04T05:30:58;98496.38;;;16.87;37.78
15884;BME280;8040;50.254;10.960;2023-06-04T05:33:28;98502.47;;;16.72;38.26
15884;BME280;8040;50.254;10.960;2023-06-04T05:35:53;98499.63;;;16.60;38.19
15884;BME280;8040;50.254;10.960;2023-06-04T05:38:25;98509.03;;;16.51;38.09
15884;BME280;8040;50.254;10.960;2023-06-04T05:40:51;98512.63;;;16.43;37.44
15884;BME280;8040;50.254;10.960;2023-06-04T05:43:17;98512.16;;;16.41;38.13
15884;BME280;8040;50.254;10.960;2023-06-04T05:45:49;98507.13;;;16.43;37.48
15884;BME280;8040;50.254;10.960;2023-06-04T05:48:15;98512.44;;;16.48;37.38
15884;BME280;8040;50.254;10.960;2023-06-04T05:50:40;98513.97;;;16.57;37.35
15884;BME280;8040;50.254;10.960;2023-06-04T05:53:05;98514.59;;;16.63;37.18
15884;BME280;8040;50.254;10.960;2023-06-04T05:55:31;98515.84;;;16.65;37.03
15884;BME280;8040;50.254;10.960;2023-06-04T05:57:56;98515.94;;;16.77;36.76
15884;BME280;8040;50.254;10.960;2023-06-04T06:00:22;98512.50;;;17.09;36.28
15884;BME280;8040;50.254;10.960;2023-06-04T06:02:49;98523.72;;;17.16;35.87
15884;BME280;8040;50.254;10.960;2023-06-04T06:05:14;98517.53;;;17.19;36.40
15884;BME280;8040;50.254;10.960;2023-06-04T06:07:45;98518.09;;;17.33;35.82
15884;BME280;8040;50.254;10.960;2023-06-04T06:10:10;98519.56;;;17.51;35.51
15884;BME280;8040;50.254;10.960;2023-06-04T06:12:37;98525.16;;;17.55;35.40
15884;BME280;8040;50.254;10.960;2023-06-04T06:15:02;98521.63;;;17.54;35.40
15884;BME280;8040;50.254;10.960;2023-06-04T06:17:27;98518.41;;;17.52;35.40
15884;BME280;8040;50.254;10.960;2023-06-04T06:19:53;98524.31;;;17.42;35.41
15884;BME280;8040;50.254;10.960;2023-06-04T06:22:19;98522.38;;;17.43;35.64
15884;BME280;8040;50.254;10.960;2023-06-04T06:24:44;98514.75;;;17.48;35.78
15884;BME280;8040;50.254;10.960;2023-06-04T06:27:10;98519.56;;;17.51;35.85
15884;BME280;8040;50.254;10.960;2023-06-04T06:32:19;98526.56;;;17.61;36.17
15884;BME280;8040;50.254;10.960;2023-06-04T06:34:45;98526.34;;;17.66;36.49
15884;BME280;8040;50.254;10.960;2023-06-04T06:37:10;98529.34;;;17.73;36.32
15884;BME280;8040;50.254;10.960;2023-06-04T06:39:35;98524.84;;;17.68;34.84
15884;BME280;8040;50.254;10.960;2023-06-04T06:42:01;98529.91;;;17.78;34.85
15884;BME280;8040;50.254;10.960;2023-06-04T06:44:26;98533.41;;;18.11;34.82
15884;BME280;8040;50.254;10.960;2023-06-04T06:46:51;98540.56;;;18.48;34.22
15884;BME280;8040;50.254;10.960;2023-06-04T06:49:17;98536.09;;;18.68;32.85
15884;BME280;8040;50.254;10.960;2023-06-04T06:54:45;98530.16;;;19.29;32.23
15884;BME280;8040;50.254;10.960;2023-06-04T06:57:10;98526.94;;;19.27;31.62
15884;BME280;8040;50.254;10.960;2023-06-04T06:59:36;98544.66;;;19.42;30.89
15884;BME280;8040;50.254;10.960;2023-06-04T07:02:01;98542.78;;;19.58;31.10
15884;BME280;8040;50.254;10.960;2023-06-04T07:04:27;98538.56;;;19.76;30.55
15884;BME280;8040;50.254;10.960;2023-06-04T07:06:52;98537.13;;;19.66;29.93
15884;BME280;8040;50.254;10.960;2023-06-04T07:09:17;98534.28;;;19.35;30.28
15884;BME280;8040;50.254;10.960;2023-06-04T07:11:43;98534.09;;;19.04;30.63
15884;BME280;8040;50.254;10.960;2023-06-04T07:14:14;98535.56;;;19.26;31.25
15884;BME280;8040;50.254;10.960;2023-06-04T07:16:39;98537.06;;;19.11;31.54
15884;BME280;8040;50.254;10.960;2023-06-04T07:19:04;98529.00;;;19.18;31.71
15884;BME280;8040;50.254;10.960;2023-06-04T07:21:29;98520.50;;;19.35;31.76
15884;BME280;8040;50.254;10.960;2023-06-04T07:23:55;98532.63;;;19.46;31.53
15884;BME280;8040;50.254;10.960;2023-06-04T07:26:20;98540.81;;;19.19;30.97
15884;BME280;8040;50.254;10.960;2023-06-04T07:28:46;98533.59;;;19.26;31.47
15884;BME280;8040;50.254;10.960;2023-06-04T07:31:14;98529.88;;;19.07;29.80
15884;BME280;8040;50.254;10.960;2023-06-04T07:33:39;98536.38;;;19.02;29.30
15884;BME280;8040;50.254;10.960;2023-06-04T07:36:15;98537.63;;;19.05;29.49
15884;BME280;8040;50.254;10.960;2023-06-04T07:38:40;98536.72;;;19.13;29.66
15884;BME280;8040;50.254;10.960;2023-06-04T07:41:05;98538.84;;;19.19;29.30
15884;BME280;8040;50.254;10.960;2023-06-04T07:43:32;98531.84;;;19.34;29.13
15884;BME280;8040;50.254;10.960;2023-06-04T07:45:58;98543.97;;;19.45;29.19
15884;BME280;8040;50.254;10.960;2023-06-04T07:48:23;98536.00;;;19.55;28.81
15884;BME280;8040;50.254;10.960;2023-06-04T07:50:55;98539.09;;;19.54;28.43
15884;BME280;8040;50.254;10.960;2023-06-04T07:53:21;98546.25;;;19.43;28.85
15884;BME280;8040;50.254;10.960;2023-06-04T07:55:46;98536.34;;;19.54;29.07
15884;BME280;8040;50.254;10.960;2023-06-04T08:01:35;98530.25;;;19.60;28.94
15884;BME280;8040;50.254;10.960;2023-06-04T08:04:00;98526.19;;;19.70;28.64
15884;BME280;8040;50.254;10.960;2023-06-04T08:06:26;98535.47;;;19.77;29.00
15884;BME280;8040;50.254;10.960;2023-06-04T08:08:52;98531.47;;;19.75;28.51
15884;BME280;8040;50.254;10.960;2023-06-04T08:11:17;98533.34;;;19.86;29.12
15884;BME280;8040;50.254;10.960;2023-06-04T08:13:42;98532.97;;;19.72;28.33
15884;BME280;8040;50.254;10.960;2023-06-04T08:16:08;98544.81;;;19.33;27.52
15884;BME280;8040;50.254;10.960;2023-06-04T08:18:38;98546.44;;;19.34;27.28
15884;BME280;8040;50.254;10.960;2023-06-04T08:21:04;98538.47;;;19.45;27.80
15884;BME280;8040;50.254;10.960;2023-06-04T08:23:35;98546.00;;;19.48;27.52
15884;BME280;8040;50.254;10.960;2023-06-04T08:26:02;98549.81;;;19.43;27.33
15884;BME280;8040;50.254;10.960;2023-06-04T08:28:27;98542.38;;;19.44;27.75
15884;BME280;8040;50.254;10.960;2023-06-04T08:30:52;98546.06;;;19.36;28.01
15884;BME280;8040;50.254;10.960;2023-06-04T08:33:18;98541.94;;;19.30;27.80
15884;BME280;8040;50.254;10.960;2023-06-04T08:35:43;98539.88;;;19.39;28.13
15884;BME280;8040;50.254;10.960;2023-06-04T08:38:08;98553.81;;;19.46;28.13
15884;BME280;8040;50.254;10.960;2023-06-04T08:40:34;98547.56;;;19.61;28.07
15884;BME280;8040;50.254;10.960;2023-06-04T08:43:00;98542.16;;;19.64;27.58
15884;BME280;8040;50.254;10.960;2023-06-04T08:45:25;98549.63;;;19.64;27.55
15884;BME280;8040;50.254;10.960;2023-06-04T08:47:52;98550.22;;;19.57;27.79
15884;BME280;8040;50.254;10.960;2023-06-04T08:50:18;98542.38;;;19.71;27.85
15884;BME280;8040;50.254;10.960;2023-06-04T08:52:44;98546.72;;;19.72;27.37
15884;BME280;8040;50.254;10.960;2023-06-04T08:55:10;98542.28;;;19.68;27.61
15884;BME280;8040;50.254;10.960;2023-06-04T08:57:38;98547.81;;;19.83;28.19
15884;BME280;8040;50.254;10.960;2023-06-04T09:00:04;98542.59;;;19.94;28.08
15884;BME280;8040;50.254;10.960;2023-06-04T09:02:32;98545.88;;;19.99;27.53
15884;BME280;8040;50.254;10.960;2023-06-04T09:04:58;98541.03;;;20.08;27.54
15884;BME280;8040;50.254;10.960;2023-06-04T09:10:26;98542.00;;;20.16;27.33
15884;BME280;8040;50.254;10.960;2023-06-04T09:12:54;98536.59;;;20.19;27.29
15884;BME280;8040;50.254;10.960;2023-06-04T09:15:20;98537.13;;;20.25;27.26
15884;BME280;8040;50.254;10.960;2023-06-04T09:17:45;98541.50;;;20.26;27.53
15884;BME280;8040;50.254;10.960;2023-06-04T09:20:20;98545.41;;;20.25;26.87
15884;BME280;8040;50.254;10.960;2023-06-04T09:22:46;98543.25;;;20.34;27.44
15884;BME280;8040;50.254;10.960;2023-06-04T09:25:18;98551.25;;;20.39;26.94
15884;BME280;8040;50.254;10.960;2023-06-04T09:27:44;98554.81;;;20.39;26.80
15884;BME280;8040;50.254;10.960;2023-06-04T09:30:10;98554.75;;;20.51;26.74
15884;BME280;8040;50.254;10.960;2023-06-04T09:32:35;98537.84;;;20.68;27.70
15884;BME280;8040;50.254;10.960;2023-06-04T09:37:39;98534.41;;;20.90;26.35
15884;BME280;8040;50.254;10.960;2023-06-04T09:40:05;98537.47;;;20.54;25.99
15884;BME280;8040;50.254;10.960;2023-06-04T09:42:41;98549.16;;;20.32;26.01
15884;BME280;8040;50.254;10.960;2023-06-04T09:45:06;98539.97;;;20.28;26.63
15884;BME280;8040;50.254;10.960;2023-06-04T09:47:39;98548.97;;;20.41;26.50
15884;BME280;8040;50.254;10.960;2023-06-04T09:50:04;98549.59;;;20.34;27.06
15884;BME280;8040;50.254;10.960;2023-06-04T09:52:33;98548.50;;;20.54;27.10
15884;BME280;8040;50.254;10.960;2023-06-04T09:54:59;98544.84;;;20.66;25.67
15884;BME280;8040;50.254;10.960;2023-06-04T09:57:24;98550.81;;;20.68;25.37
15884;BME280;8040;50.254;10.960;2023-06-04T09:59:50;98553.91;;;20.66;25.42
15884;BME280;8040;50.254;10.960;2023-06-04T10:02:18;98553.75;;;20.59;25.12
15884;BME280;8040;50.254;10.960;2023-06-04T10:04:44;98551.97;;;20.67;25.14
15884;BME280;8040;50.254;10.960;2023-06-04T10:07:12;98546.69;;;20.77;25.38
15884;BME280;8040;50.254;10.960;2023-06-04T10:09:38;98539.59;;;20.92;25.72
15884;BME280;8040;50.254;10.960;2023-06-04T10:15:35;98543.03;;;20.89;25.04
15884;BME280;8040;50.254;10.960;2023-06-04T10:18:01;98535.03;;;20.99;25.07
15884;BME280;8040;50.254;10.960;2023-06-04T10:20:28;98535.47;;;21.01;24.94
15884;BME280;8040;50.254;10.960;2023-06-04T10:22:53;98545.44;;;20.75;24.44
15884;BME280;8040;50.254;10.960;2023-06-04T10:25:20;98543.63;;;20.63;24.84
15884;BME280;8040;50.254;10.960;2023-06-04T10:27:46;98533.03;;;20.65;24.87
15884;BME280;8040;50.254;10.960;2023-06-04T10:30:11;98540.78;;;20.60;24.60
15884;BME280;8040;50.254;10.960;2023-06-04T10:32:37;98536.84;;;20.61;24.86
15884;BME280;8040;50.254;10.960;2023-06-04T10:35:03;98531.78;;;20.63;24.91
15884;BME280;8040;50.254;10.960;2023-06-04T10:40:57;98521.25;;;20.84;24.90
15884;BME280;8040;50.254;10.960;2023-06-04T10:43:22;98527.31;;;20.89;24.76
15884;BME280;8040;50.254;10.960;2023-06-04T10:45:54;98527.13;;;20.98;25.16
15884;BME280;8040;50.254;10.960;2023-06-04T10:48:20;98526.91;;;21.06;24.83
15884;BME280;8040;50.254;10.960;2023-06-04T10:50:49;98520.16;;;21.04;25.14
15884;BME280;8040;50.254;10.960;2023-06-04T10:53:16;98515.28;;;21.16;26.18
15884;BME280;8040;50.254;10.960;2023-06-04T10:55:45;98520.81;;;21.16;25.22
15884;BME280;8040;50.254;10.960;2023-06-04T10:58:11;98520.09;;;21.19;25.29
15884;BME280;8040;50.254;10.960;2023-06-04T11:00:41;98517.47;;;21.26;24.97
15884;BME280;8040;50.254;10.960;2023-06-04T11:03:10;98520.31;;;21.30;25.37
15884;BME280;8040;50.254;10.960;2023-06-04T11:05:39;98524.09;;;21.03;25.43
15884;BME280;8040;50.254;10.960;2023-06-04T11:08:05;98525.53;;;21.16;25.99
15884;BME280;8040;50.254;10.960;2023-06-04T11:10:32;98517.69;;;21.18;25.63
15884;BME280;8040;50.254;10.960;2023-06-04T11:12:58;98517.47;;;21.07;25.17
15884;BME280;8040;50.254;10.960;2023-06-04T11:15:24;98517.13;;;21.09;25.01
15884;BME280;8040;50.254;10.960;2023-06-04T11:17:50;98519.34;;;21.22;25.62
15884;BME280;8040;50.254;10.960;2023-06-04T11:20:19;98526.84;;;21.03;25.63
15884;BME280;8040;50.254;10.960;2023-06-04T11:22:51;98517.53;;;20.92;25.86
15884;BME280;8040;50.254;10.960;2023-06-04T11:25:20;98511.69;;;21.12;25.64
15884;BME280;8040;50.254;10.960;2023-06-04T11:27:47;98517.06;;;21.24;24.47
15884;BME280;8040;50.254;10.960;2023-06-04T11:30:13;98506.03;;;21.24;24.21
15884;BME280;8040;50.254;10.960;2023-06-04T11:32:38;98509.28;;;21.11;24.10
15884;BME280;8040;50.254;10.960;2023-06-04T11:35:04;98500.03;;;21.22;24.70
15884;BME280;8040;50.254;10.960;2023-06-04T11:37:31;98495.56;;;21.33;24.76
15884;BME280;8040;50.254;10.960;2023-06-04T11:39:57;98502.84;;;21.41;24.78
15884;BME280;8040;50.254;10.960;2023-06-04T11:42:23;98508.63;;;21.36;24.30
15884;BME280;8040;50.254;10.960;2023-06-04T11:44:48;98497.13;;;21.53;24.40
15884;BME280;8040;50.254;10.960;2023-06-04T11:47:17;98507.47;;;21.56;24.42
15884;BME280;8040;50.254;10.960;2023-06-04T11:49:42;98508.50;;;21.67;23.97
15884;BME280;8040;50.254;10.960;2023-06-04T11:52:08;98499.72;;;21.65;23.97
15884;BME280;8040;50.254;10.960;2023-06-04T11:54:34;98499.53;;;21.74;24.52
15884;BME280;8040;50.254;10.960;2023-06-04T11:57:03;98502.22;;;21.70;23.42
15884;BME280;8040;50.254;10.960;2023-06-04T11:59:30;98496.28;;;21.68;24.46
15884;BME280;8040;50.254;10.960;2023-06-04T12:01:56;98496.56;;;21.63;24.21
15884;BME280;8040;50.254;10.960;2023-06-04T12:04:22;98489.06;;;21.64;23.69
15884;BME280;8040;50.254;10.960;2023-06-04T12:06:51;98496.91;;;21.81;23.67
15884;BME280;8040;50.254;10.960;2023-06-04T12:09:21;98487.38;;;21.97;23.50
15884;BME280;8040;50.254;10.960;2023-06-04T12:11:47;98489.19;;;22.12;23.54
15884;BME280;8040;50.254;10.960;2023-06-04T12:14:15;98483.00;;;22.19;23.41
15884;BME280;8040;50.254;10.960;2023-06-04T12:16:41;98486.59;;;22.23;23.10
15884;BME280;8040;50.254;10.960;2023-06-04T12:19:10;98486.25;;;22.24;23.28
15884;BME280;8040;50.254;10.960;2023-06-04T12:21:36;98483.31;;;22.14;23.80
15884;BME280;8040;50.254;10.960;2023-06-04T12:24:11;98475.13;;;22.21;23.40
15884;BME280;8040;50.254;10.960;2023-06-04T12:26:38;98451.72;;;22.15;23.66
15884;BME280;8040;50.254;10.960;2023-06-04T12:29:15;98489.41;;;22.26;22.81
15884;BME280;8040;50.254;10.960;2023-06-04T12:31:41;98474.53;;;22.31;23.35
15884;BME280;8040;50.254;10.960;2023-06-04T12:34:07;98483.06;;;22.45;22.95
15884;BME280;8040;50.254;10.960;2023-06-04T12:36:32;98485.13;;;22.29;22.02
15884;BME280;8040;50.254;10.960;2023-06-04T12:39:02;98466.22;;;22.31;22.49
15884;BME280;8040;50.254;10.960;2023-06-04T12:41:28;98472.66;;;22.38;22.58
15884;BME280;8040;50.254;10.960;2023-06-04T12:43:53;98482.06;;;22.34;22.93
15884;BME280;8040;50.254;10.960;2023-06-04T12:46:19;98474.78;;;22.22;23.07
15884;BME280;8040;50.254;10.960;2023-06-04T12:48:45;98478.06;;;22.31;22.88
15884;BME280;8040;50.254;10.960;2023-06-04T12:51:16;98469.59;;;22.43;22.93
15884;BME280;8040;50.254;10.960;2023-06-04T12:53:41;98472.47;;;22.50;22.67
15884;BME280;8040;50.254;10.960;2023-06-04T12:56:07;98463.44;;;22.53;21.30
15884;BME280;8040;50.254;10.960;2023-06-04T12:58:33;98459.59;;;22.61;21.40
15884;BME280;8040;50.254;10.960;2023-06-04T13:00:58;98459.59;;;22.61;21.53
15884;BME280;8040;50.254;10.960;2023-06-04T13:03:25;98463.59;;;22.64;21.72
15884;BME280;8040;50.254;10.960;2023-06-04T13:05:50;98454.06;;;22.61;21.85
15884;BME280;8040;50.254;10.960;2023-06-04T13:08:16;98465.41;;;22.53;21.77
15884;BME280;8040;50.254;10.960;2023-06-04T13:10:42;98458.78;;;22.57;22.08
15884;BME280;8040;50.254;10.960;2023-06-04T13:16:29;98452.59;;;22.67;22.25
15884;BME280;8040;50.254;10.960;2023-06-04T13:18:54;98452.31;;;22.76;23.55
15884;BME280;8040;50.254;10.960;2023-06-04T13:21:19;98438.63;;;22.86;23.12
15884;BME280;8040;50.254;10.960;2023-06-04T13:23:45;98433.25;;;22.97;22.98
15884;BME280;8040;50.254;10.960;2023-06-04T13:26:10;98441.97;;;22.99;22.45
15884;BME280;8040;50.254;10.960;2023-06-04T13:28:35;98442.69;;;22.96;21.78
15884;BME280;8040;50.254;10.960;2023-06-04T13:31:01;98441.16;;;22.98;21.73
15884;BME280;8040;50.254;10.960;2023-06-04T13:33:26;98436.94;;;23.08;21.84
15884;BME280;8040;50.254;10.960;2023-06-04T13:35:52;98440.25;;;23.17;21.44